Time;durP1;ratioP1;P1;durP2;ratioP2;P2;SDS_P1;SDS_P2;PMS_P1;PMS_P2;Temp;Humidity;BMP_temperature;BMP_pressure;BME280_temperature;BME280_humidity;BME280_pressure;Samples;Min_cycle;Max_cycle;Signal;HPM_P1;HPM_P2
2021/04/28 00:00:07;;;;;;;6.60;5.20;;;;;;;;;;2095034;28;20175;-63
2021/04/28 00:01:08;;;;;;;5.70;5.20;;;;;;;;;;2096372;28;20572;-64
2021/04/28 00:02:09;;;;;;;6.17;5.50;;;;;;;;;;2095768;28;20182;-64
2021/04/28 00:03:09;;;;;;;7.70;5.50;;;;;;;;;;2098576;28;20177;-66
2021/04/28 00:04:10;;;;;;;5.90;5.40;;;;;;;;;;2097567;28;20728;-65
2021/04/28 00:05:11;;;;;;;5.80;5.37;;;;;;;;;;2105668;28;20186;-64
2021/04/28 00:06:11;;;;;;;8.00;5.10;;;;;;;;;;2103934;28;20497;-65
2021/04/28 00:07:11;;;;;;;5.93;5.53;;;;;;;;;;2097265;28;20182;-65
2021/04/28 00:08:12;;;;;;;6.10;5.53;;;;;;;;;;2097345;28;20171;-65
2021/04/28 00:09:12;;;;;;;5.70;5.27;;;;;;;;;;2096419;28;20171;-65
2021/04/28 00:10:14;;;;;;;6.70;5.27;;;;;;;;;;2095767;28;20198;-64
2021/04/28 00:11:14;;;;;;;7.60;5.67;;;;;;;;;;2097468;28;20187;-64
2021/04/28 00:12:14;;;;;;;5.50;5.00;;;;;;;;;;2089379;28;20271;-65
2021/04/28 00:13:15;;;;;;;8.37;5.77;;;;;;;;;;2088439;28;20229;-64
2021/04/28 00:14:16;;;;;;;5.77;5.23;;;;;;;;;;2096698;28;20178;-66
2021/04/28 00:15:18;;;;;;;6.17;5.63;;;;;;;;;;2098490;28;20166;-65
2021/04/28 00:16:20;;;;;;;5.73;5.13;;;;;;;;;;2097253;28;20182;-65
2021/04/28 00:17:20;;;;;;;5.60;5.00;;;;;;;;;;2095767;28;20180;-64
2021/04/28 00:18:20;;;;;;;5.23;4.83;;;;;;;;;;2092679;28;20168;-64
2021/04/28 00:19:20;;;;;;;6.70;5.77;;;;;;;;;;2096282;28;20594;-64
2021/04/28 00:20:22;;;;;;;6.40;4.97;;;;;;;;;;2097030;28;20632;-65
2021/04/28 00:21:22;;;;;;;5.80;5.30;;;;;;;;;;2097750;28;20229;-64
2021/04/28 00:22:22;;;;;;;5.83;5.10;;;;;;;;;;2096699;28;20182;-65
2021/04/28 00:23:22;;;;;;;5.27;4.87;;;;;;;;;;2095444;28;20248;-65
2021/04/28 00:24:23;;;;;;;5.73;5.13;;;;;;;;;;2097027;28;20303;-66
2021/04/28 00:25:24;;;;;;;6.00;5.50;;;;;;;;;;2097748;28;20631;-64
2021/04/28 00:26:24;;;;;;;5.27;4.80;;;;;;;;;;2094969;28;20171;-65
2021/04/28 00:27:24;;;;;;;5.37;4.97;;;;;;;;;;2097201;28;20275;-63
2021/04/28 00:28:25;;;;;;;5.87;5.30;;;;;;;;;;2097896;28;20726;-65
2021/04/28 00:29:25;;;;;;;5.97;5.10;;;;;;;;;;2096891;28;20167;-65
2021/04/28 00:30:26;;;;;;;5.20;4.80;;;;;;;;;;2089087;28;20171;-64
2021/04/28 00:31:26;;;;;;;9.03;4.93;;;;;;;;;;2096850;28;20195;-62
2021/04/28 00:32:26;;;;;;;5.47;4.97;;;;;;;;;;2097960;28;20167;-64
2021/04/28 00:33:26;;;;;;;5.87;5.30;;;;;;;;;;2096519;28;20206;-62
2021/04/28 00:34:27;;;;;;;5.50;5.00;;;;;;;;;;2097621;28;20663;-66
2021/04/28 00:35:27;;;;;;;5.10;4.70;;;;;;;;;;2098157;28;20186;-66
2021/04/28 00:36:27;;;;;;;5.60;5.13;;;;;;;;;;2097926;28;20179;-66
2021/04/28 00:37:28;;;;;;;6.53;5.00;;;;;;;;;;2097292;28;20162;-65
2021/04/28 00:38:28;;;;;;;8.17;5.50;;;;;;;;;;2096050;28;20250;-66
2021/04/28 00:39:28;;;;;;;6.20;5.60;;;;;;;;;;2096656;28;20193;-64
2021/04/28 00:40:33;;;;;;;6.23;5.73;;;;;;;;;;2098810;28;20286;-66
2021/04/28 00:41:33;;;;;;;6.10;5.50;;;;;;;;;;2098009;28;20182;-65
2021/04/28 00:42:34;;;;;;;7.23;5.60;;;;;;;;;;2099436;28;20220;-63
2021/04/28 00:43:35;;;;;;;5.57;5.10;;;;;;;;;;2096054;28;20203;-64
2021/04/28 00:44:36;;;;;;;5.50;5.10;;;;;;;;;;2089331;28;20172;-65
2021/04/28 00:45:36;;;;;;;5.67;5.17;;;;;;;;;;2096118;28;20164;-65
2021/04/28 00:46:37;;;;;;;5.97;5.00;;;;;;;;;;2095063;28;20247;-63
2021/04/28 00:47:37;;;;;;;5.30;4.90;;;;;;;;;;2096628;28;20207;-64
2021/04/28 00:48:37;;;;;;;5.30;4.90;;;;;;;;;;2098585;28;20163;-65
2021/04/28 00:49:38;;;;;;;5.57;5.17;;;;;;;;;;2097366;28;20178;-65
2021/04/28 00:50:42;;;;;;;6.97;5.73;;;;;;;;;;2093611;28;20564;-65
2021/04/28 00:51:42;;;;;;;5.50;5.00;;;;;;;;;;2093352;28;20542;-64
2021/04/28 00:52:43;;;;;;;6.70;5.37;;;;;;;;;;2096490;28;20171;-66
2021/04/28 00:53:44;;;;;;;5.60;5.17;;;;;;;;;;2095482;28;20611;-65
2021/04/28 00:54:45;;;;;;;6.07;5.50;;;;;;;;;;2096666;28;20234;-65
2021/04/28 00:55:45;;;;;;;9.47;4.83;;;;;;;;;;2088641;28;20695;-65
2021/04/28 00:56:45;;;;;;;5.67;5.27;;;;;;;;;;2095051;28;20235;-65
2021/04/28 00:57:46;;;;;;;8.97;5.37;;;;;;;;;;2096111;28;20213;-65
2021/04/28 00:58:46;;;;;;;5.87;5.30;;;;;;;;;;2096472;28;20654;-66
2021/04/28 00:59:47;;;;;;;5.30;4.90;;;;;;;;;;2096810;28;20321;-67
2021/04/28 01:00:47;;;;;;;5.73;5.30;;;;;;;;;;2089057;28;20171;-66
2021/04/28 01:01:48;;;;;;;7.83;5.70;;;;;;;;;;2096988;28;20186;-66
2021/04/28 01:02:50;;;;;;;5.20;4.80;;;;;;;;;;2097216;28;20532;-64
2021/04/28 01:03:50;;;;;;;6.17;5.57;;;;;;;;;;2096362;28;20189;-64
2021/04/28 01:04:51;;;;;;;5.67;5.17;;;;;;;;;;2096382;28;20182;-66
2021/04/28 01:05:53;;;;;;;5.60;5.00;;;;;;;;;;2097094;28;20228;-65
2021/04/28 01:06:54;;;;;;;5.80;5.30;;;;;;;;;;2087970;28;20190;-61
2021/04/28 01:07:55;;;;;;;5.63;5.23;;;;;;;;;;2096945;28;20197;-65
2021/04/28 01:08:56;;;;;;;5.70;4.97;;;;;;;;;;2097966;28;20168;-67
2021/04/28 01:09:58;;;;;;;7.33;5.00;;;;;;;;;;2097931;28;20608;-67
2021/04/28 01:10:59;;;;;;;5.47;5.07;;;;;;;;;;2097333;28;20187;-64
2021/04/28 01:12:00;;;;;;;6.23;5.53;;;;;;;;;;2094723;28;20171;-65
2021/04/28 01:13:02;;;;;;;5.47;5.07;;;;;;;;;;2094055;28;20210;-65
2021/04/28 01:14:02;;;;;;;7.37;4.97;;;;;;;;;;2079461;28;20245;-65
2021/04/28 01:15:04;;;;;;;5.03;4.67;;;;;;;;;;2079752;28;20329;-65
2021/04/28 01:16:09;;;;;;;4.63;4.33;;;;;;;;;;2093283;28;20687;-65
2021/04/28 01:17:11;;;;;;;4.97;4.57;;;;;;;;;;2096235;28;20174;-64
2021/04/28 01:18:11;;;;;;;5.77;5.23;;;;;;;;;;2096142;28;20263;-64
2021/04/28 01:19:12;;;;;;;5.60;5.10;;;;;;;;;;2093672;28;20191;-65
2021/04/28 01:20:21;;;;;;;5.30;4.80;;;;;;;;;;2092658;28;20178;-66
2021/04/28 01:21:22;;;;;;;7.83;5.00;;;;;;;;;;2094344;28;20188;-65
2021/04/28 01:22:23;;;;;;;5.93;5.43;;;;;;;;;;2094382;28;20518;-65
2021/04/28 01:23:23;;;;;;;5.73;5.10;;;;;;;;;;2094273;28;20216;-66
2021/04/28 01:24:26;;;;;;;5.70;5.20;;;;;;;;;;2093206;28;20171;-66
2021/04/28 01:25:28;;;;;;;6.60;5.47;;;;;;;;;;2097386;28;20175;-67
2021/04/28 01:26:29;;;;;;;6.37;5.43;;;;;;;;;;2093882;28;20229;-64
2021/04/28 01:27:31;;;;;;;7.73;5.70;;;;;;;;;;2096989;28;20679;-66
2021/04/28 01:28:32;;;;;;;5.60;5.20;;;;;;;;;;2085438;28;20176;-66
2021/04/28 01:29:34;;;;;;;5.93;5.43;;;;;;;;;;2084405;28;20171;-66
2021/04/28 01:30:42;;;;;;;7.97;5.90;;;;;;;;;;2101793;28;20190;-66
2021/04/28 01:31:42;;;;;;;6.13;5.63;;;;;;;;;;2093981;28;20163;-63
2021/04/28 01:32:46;;;;;;;5.50;5.10;;;;;;;;;;2094015;28;20209;-66
2021/04/28 01:33:47;;;;;;;6.63;5.43;;;;;;;;;;2086242;28;20205;-65
2021/04/28 01:34:50;;;;;;;6.37;5.77;;;;;;;;;;2093964;28;20671;-66
2021/04/28 01:35:52;;;;;;;5.90;5.37;;;;;;;;;;2096429;28;20225;-65
2021/04/28 01:36:53;;;;;;;5.73;5.17;;;;;;;;;;2093926;28;20176;-64
2021/04/28 01:37:55;;;;;;;5.57;5.07;;;;;;;;;;2093014;28;20159;-65
2021/04/28 01:38:57;;;;;;;5.57;4.97;;;;;;;;;;2093516;28;20241;-65
2021/04/28 01:39:59;;;;;;;6.97;6.27;;;;;;;;;;2091410;28;20194;-67
2021/04/28 01:41:00;;;;;;;6.73;6.13;;;;;;;;;;2095516;28;20352;-65
2021/04/28 01:42:02;;;;;;;6.50;5.80;;;;;;;;;;2087863;28;20180;-65
2021/04/28 01:43:04;;;;;;;6.63;6.03;;;;;;;;;;2086380;28;20538;-67
2021/04/28 01:44:05;;;;;;;7.40;6.57;;;;;;;;;;2093578;28;20182;-66
2021/04/28 01:45:06;;;;;;;7.83;6.97;;;;;;;;;;2096264;28;20561;-66
2021/04/28 01:46:08;;;;;;;8.27;6.97;;;;;;;;;;2094758;28;20202;-65
2021/04/28 01:47:08;;;;;;;7.70;6.67;;;;;;;;;;2096631;28;20636;-65
2021/04/28 01:48:09;;;;;;;6.97;6.27;;;;;;;;;;2096884;28;20224;-65
2021/04/28 01:49:14;;;;;;;8.47;6.23;;;;;;;;;;2097115;28;20183;-65
2021/04/28 01:50:16;;;;;;;7.07;6.37;;;;;;;;;;2096996;28;20202;-66
2021/04/28 01:51:17;;;;;;;6.67;6.07;;;;;;;;;;2096518;28;20218;-65
2021/04/28 01:52:18;;;;;;;6.43;5.90;;;;;;;;;;2095695;28;20167;-66
2021/04/28 01:53:21;;;;;;;9.63;5.90;;;;;;;;;;2086050;28;20611;-65
2021/04/28 01:54:22;;;;;;;7.57;6.37;;;;;;;;;;2088427;28;20183;-66
2021/04/28 01:55:23;;;;;;;6.40;5.90;;;;;;;;;;2095870;28;20186;-66
2021/04/28 01:56:47;;;;;;;6.40;5.80;;;;;;;;;;2095960;28;20551;-66
2021/04/28 01:58:16;;;;;;;6.43;5.93;;;;;;;;;;2081509;28;20218;-67
2021/04/28 01:59:17;;;;;;;7.17;6.20;;;;;;;;;;2094225;28;20167;-66
2021/04/28 02:00:32;;;;;;;7.53;5.90;;;;;;;;;;2092569;28;20185;-64
2021/04/28 02:01:32;;;;;;;6.00;5.50;;;;;;;;;;2086645;28;20172;-67
2021/04/28 02:02:34;;;;;;;6.27;5.70;;;;;;;;;;2095327;28;20174;-65
2021/04/28 02:03:34;;;;;;;5.90;5.40;;;;;;;;;;2096594;28;20216;-66
2021/04/28 02:04:35;;;;;;;6.90;6.17;;;;;;;;;;2094097;28;20249;-67
2021/04/28 02:05:36;;;;;;;6.00;5.60;;;;;;;;;;2096394;28;20197;-65
2021/04/28 02:06:39;;;;;;;6.67;6.10;;;;;;;;;;2087913;28;20254;-66
2021/04/28 02:07:41;;;;;;;9.23;6.37;;;;;;;;;;2079718;28;20200;-65
2021/04/28 02:08:42;;;;;;;6.40;5.67;;;;;;;;;;2080403;28;20712;-66
2021/04/28 02:09:43;;;;;;;6.43;5.93;;;;;;;;;;2090611;28;20167;-67
2021/04/28 02:10:50;;;;;;;6.10;5.50;;;;;;;;;;2086999;28;20795;-62
2021/04/28 02:11:52;;;;;;;7.33;6.00;;;;;;;;;;2090890;28;20264;-66
2021/04/28 02:12:54;;;;;;;9.70;6.17;;;;;;;;;;2081813;28;20199;-66
2021/04/28 02:14:03;;;;;;;9.60;5.93;;;;;;;;;;2089048;28;20168;-62
2021/04/28 02:15:33;;;;;;;6.10;5.50;;;;;;;;;;2079071;28;20184;-66
2021/04/28 02:16:38;;;;;;;6.17;5.57;;;;;;;;;;2088191;28;20584;-66
2021/04/28 02:17:39;;;;;;;6.73;6.07;;;;;;;;;;2085841;28;20179;-66
2021/04/28 02:18:41;;;;;;;6.23;5.70;;;;;;;;;;2087871;28;20176;-65
2021/04/28 02:19:41;;;;;;;6.60;6.07;;;;;;;;;;2096504;28;20173;-65
2021/04/28 02:20:45;;;;;;;6.43;5.83;;;;;;;;;;2095983;28;20581;-66
2021/04/28 02:22:12;;;;;;;6.43;5.77;;;;;;;;;;2094051;28;20239;-67
2021/04/28 02:23:21;;;;;;;5.97;5.33;;;;;;;;;;2094220;28;20262;-66
2021/04/28 02:24:23;;;;;;;6.67;6.07;;;;;;;;;;2096436;28;20312;-66
2021/04/28 02:25:23;;;;;;;7.57;6.00;;;;;;;;;;2086460;28;20614;-65
2021/04/28 02:26:33;;;;;;;6.33;5.83;;;;;;;;;;2088154;28;20160;-65
2021/04/28 02:27:34;;;;;;;7.83;6.40;;;;;;;;;;2095677;28;20277;-66
2021/04/28 02:28:34;;;;;;;6.37;5.87;;;;;;;;;;2095921;28;20163;-65
2021/04/28 02:29:37;;;;;;;6.67;6.07;;;;;;;;;;2088802;28;20167;-66
2021/04/28 02:30:37;;;;;;;6.73;6.13;;;;;;;;;;2096413;28;20610;-66
2021/04/28 02:31:38;;;;;;;7.97;5.90;;;;;;;;;;2097527;28;20182;-66
2021/04/28 02:32:39;;;;;;;6.40;5.83;;;;;;;;;;2086991;28;20282;-66
2021/04/28 02:34:00;;;;;;;6.77;6.20;;;;;;;;;;2074770;28;20601;-65
2021/04/28 02:35:06;;;;;;;6.47;5.87;;;;;;;;;;2094367;28;20236;-65
2021/04/28 02:36:26;;;;;;;6.10;5.60;;;;;;;;;;2093699;28;20171;-66
2021/04/28 02:38:01;;;;;;;6.93;5.47;;;;;;;;;;2071507;28;20209;-64
2021/04/28 02:39:32;;;;;;;6.60;5.73;;;;;;;;;;2096142;28;20167;-65
2021/04/28 02:40:35;;;;;;;6.37;5.97;;;;;;;;;;2093665;28;20566;-64
2021/04/28 02:41:43;;;;;;;6.63;6.07;;;;;;;;;;2096360;28;20183;-63
2021/04/28 02:42:45;;;;;;;7.10;6.50;;;;;;;;;;2094131;28;20170;-65
2021/04/28 02:43:46;;;;;;;7.27;6.57;;;;;;;;;;2103209;28;20201;-65
2021/04/28 02:44:53;;;;;;;8.33;6.47;;;;;;;;;;2095171;28;20693;-65
2021/04/28 02:45:55;;;;;;;7.80;6.30;;;;;;;;;;2096923;28;20174;-66
2021/04/28 02:46:56;;;;;;;7.13;6.53;;;;;;;;;;2097222;28;20163;-64
2021/04/28 02:47:57;;;;;;;6.83;6.10;;;;;;;;;;2098299;28;20173;-64
2021/04/28 02:49:03;;;;;;;6.83;5.93;;;;;;;;;;2088838;28;20183;-65
2021/04/28 02:50:10;;;;;;;6.93;6.07;;;;;;;;;;2088554;28;20199;-65
2021/04/28 02:51:34;;;;;;;6.90;6.20;;;;;;;;;;2094718;28;20218;-64
2021/04/28 02:52:36;;;;;;;6.67;6.07;;;;;;;;;;2101579;28;20177;-64
2021/04/28 02:53:40;;;;;;;6.70;6.07;;;;;;;;;;2101861;28;20231;-63
2021/04/28 02:54:41;;;;;;;7.43;6.37;;;;;;;;;;2096855;28;20171;-63
2021/04/28 02:55:45;;;;;;;8.93;6.13;;;;;;;;;;2096734;28;20621;-65
2021/04/28 02:56:48;;;;;;;6.50;6.00;;;;;;;;;;2088113;28;20362;-65
2021/04/28 02:57:48;;;;;;;8.13;5.97;;;;;;;;;;2088254;28;20168;-66
2021/04/28 02:58:48;;;;;;;6.53;5.93;;;;;;;;;;2095573;28;20240;-65
2021/04/28 02:59:50;;;;;;;7.87;5.87;;;;;;;;;;2094618;28;20362;-67
2021/04/28 03:00:52;;;;;;;9.27;5.97;;;;;;;;;;2096429;28;20219;-65
2021/04/28 03:01:53;;;;;;;6.57;5.93;;;;;;;;;;2086467;28;20290;-65
2021/04/28 03:02:56;;;;;;;6.97;6.37;;;;;;;;;;2090131;28;20190;-65
2021/04/28 03:03:58;;;;;;;7.17;6.13;;;;;;;;;;2098960;28;20171;-66
2021/04/28 03:05:15;;;;;;;6.30;5.53;;;;;;;;;;2100882;28;20170;-67
2021/04/28 03:06:35;;;;;;;7.17;6.47;;;;;;;;;;2095948;28;20155;-66
2021/04/28 03:07:36;;;;;;;6.90;6.23;;;;;;;;;;2095671;28;20175;-64
2021/04/28 03:08:37;;;;;;;6.13;5.63;;;;;;;;;;2087728;28;20171;-65
2021/04/28 03:09:39;;;;;;;7.10;6.30;;;;;;;;;;2086999;28;20175;-64
2021/04/28 03:10:39;;;;;;;7.73;6.43;;;;;;;;;;2094612;28;20163;-65
2021/04/28 03:11:41;;;;;;;6.47;5.87;;;;;;;;;;2096340;28;20186;-64
2021/04/28 03:12:48;;;;;;;8.37;6.50;;;;;;;;;;2089438;28;20644;-65
2021/04/28 03:13:49;;;;;;;7.87;6.83;;;;;;;;;;2096499;28;20171;-65
2021/04/28 03:14:49;;;;;;;6.50;6.00;;;;;;;;;;2093925;28;20178;-65
2021/04/28 03:15:50;;;;;;;10.70;6.13;;;;;;;;;;2095662;28;20267;-67
2021/04/28 03:16:50;;;;;;;6.80;6.20;;;;;;;;;;2087948;28;20176;-65
2021/04/28 03:17:50;;;;;;;7.67;6.97;;;;;;;;;;2096260;28;20174;-65
2021/04/28 03:19:05;;;;;;;9.97;7.03;;;;;;;;;;2094681;28;20946;-65
2021/04/28 03:20:07;;;;;;;7.73;6.90;;;;;;;;;;2092138;28;20175;-63
2021/04/28 03:21:14;;;;;;;8.43;7.10;;;;;;;;;;2088865;28;20196;-66
2021/04/28 03:22:18;;;;;;;9.97;7.20;;;;;;;;;;2095960;28;20320;-65
2021/04/28 03:23:19;;;;;;;7.20;6.50;;;;;;;;;;2088395;28;20175;-66
2021/04/28 03:24:21;;;;;;;7.90;7.20;;;;;;;;;;2090624;28;20172;-66
2021/04/28 03:25:22;;;;;;;7.17;6.47;;;;;;;;;;2096045;28;20182;-66
2021/04/28 03:26:30;;;;;;;8.17;7.30;;;;;;;;;;2094800;28;20428;-63
2021/04/28 03:27:30;;;;;;;7.97;7.20;;;;;;;;;;2093526;28;20412;-64
2021/04/28 03:28:32;;;;;;;8.27;7.47;;;;;;;;;;2088595;28;20608;-64
2021/04/28 03:29:32;;;;;;;7.67;6.57;;;;;;;;;;2085258;28;20168;-64
2021/04/28 03:30:34;;;;;;;7.50;6.77;;;;;;;;;;2096723;28;20629;-64
2021/04/28 03:31:35;;;;;;;6.97;6.37;;;;;;;;;;2096048;28;20200;-63
2021/04/28 03:32:35;;;;;;;8.27;6.27;;;;;;;;;;2096494;28;20174;-63
2021/04/28 03:34:02;;;;;;;6.53;5.93;;;;;;;;;;2093208;28;20193;-64
2021/04/28 03:35:03;;;;;;;7.53;6.73;;;;;;;;;;2086878;28;20632;-65
2021/04/28 03:36:04;;;;;;;7.20;6.13;;;;;;;;;;2088073;28;20834;-64
2021/04/28 03:37:22;;;;;;;6.93;6.33;;;;;;;;;;2084616;28;20536;-65
2021/04/28 03:38:23;;;;;;;7.67;6.97;;;;;;;;;;2090728;28;20733;-65
2021/04/28 03:39:23;;;;;;;7.63;6.67;;;;;;;;;;2094089;28;20200;-65
2021/04/28 03:40:24;;;;;;;7.23;6.57;;;;;;;;;;2103829;28;20257;-64
2021/04/28 03:41:27;;;;;;;7.33;6.33;;;;;;;;;;2093706;28;20202;-66
2021/04/28 03:42:27;;;;;;;8.17;7.27;;;;;;;;;;2087204;28;20172;-64
2021/04/28 03:43:29;;;;;;;7.17;6.50;;;;;;;;;;2087664;28;20634;-64
2021/04/28 03:44:30;;;;;;;8.43;6.63;;;;;;;;;;2093856;28;20254;-64
2021/04/28 03:45:31;;;;;;;7.70;6.90;;;;;;;;;;2096182;28;20174;-64
2021/04/28 03:46:32;;;;;;;8.23;7.40;;;;;;;;;;2085817;28;20183;-64
2021/04/28 03:47:33;;;;;;;7.13;6.47;;;;;;;;;;2089418;28;20171;-64
2021/04/28 03:48:33;;;;;;;7.10;6.47;;;;;;;;;;2095962;28;20191;-63
2021/04/28 03:49:34;;;;;;;8.03;7.23;;;;;;;;;;2096455;28;20175;-64
2021/04/28 03:50:34;;;;;;;7.37;6.73;;;;;;;;;;2087579;28;20648;-64
2021/04/28 03:51:36;;;;;;;8.27;6.87;;;;;;;;;;2087928;28;20175;-63
2021/04/28 03:52:48;;;;;;;7.47;6.73;;;;;;;;;;2097723;28;20824;-65
2021/04/28 03:54:21;;;;;;;8.33;7.50;;;;;;;;;;2091502;28;20175;-66
2021/04/28 03:55:28;;;;;;;7.03;6.43;;;;;;;;;;2097401;28;21011;-65
2021/04/28 03:56:29;;;;;;;9.37;6.50;;;;;;;;;;2089152;28;20174;-65
2021/04/28 03:57:31;;;;;;;7.73;6.83;;;;;;;;;;2088836;28;20626;-65
2021/04/28 03:58:31;;;;;;;8.57;6.83;;;;;;;;;;2097827;28;20156;-65
2021/04/28 03:59:38;;;;;;;7.50;6.73;;;;;;;;;;2086175;28;20164;-65
2021/04/28 04:00:38;;;;;;;7.57;6.87;;;;;;;;;;2089808;28;20203;-64
2021/04/28 04:01:52;;;;;;;10.10;6.60;;;;;;;;;;2095921;28;20228;-64
2021/04/28 04:02:53;;;;;;;7.37;6.63;;;;;;;;;;2097064;28;20926;-64
2021/04/28 04:04:12;;;;;;;7.07;6.40;;;;;;;;;;2095647;28;20167;-64
2021/04/28 04:05:33;;;;;;;7.23;6.53;;;;;;;;;;2093969;28;20175;-65
2021/04/28 04:07:01;;;;;;;7.87;7.07;;;;;;;;;;2095540;28;20199;-65
2021/04/28 04:08:37;;;;;;;8.47;7.00;;;;;;;;;;2096837;28;20473;-65
2021/04/28 04:09:38;;;;;;;7.70;6.90;;;;;;;;;;2088434;28;20244;-66
2021/04/28 04:10:39;;;;;;;7.43;6.67;;;;;;;;;;2089016;28;20176;-66
2021/04/28 04:11:40;;;;;;;9.30;7.07;;;;;;;;;;2089445;28;20221;-66
2021/04/28 04:12:41;;;;;;;10.67;7.07;;;;;;;;;;2088296;28;20171;-65
2021/04/28 04:13:42;;;;;;;8.20;7.40;;;;;;;;;;2097048;28;20190;-65
2021/04/28 04:14:42;;;;;;;8.67;7.13;;;;;;;;;;2094289;28;20192;-66
2021/04/28 04:15:43;;;;;;;7.83;7.20;;;;;;;;;;2085519;28;20164;-65
2021/04/28 04:16:43;;;;;;;7.43;6.30;;;;;;;;;;2089462;28;20672;-65
2021/04/28 04:17:44;;;;;;;7.40;6.70;;;;;;;;;;2078529;28;20243;-65
2021/04/28 04:18:56;;;;;;;7.50;6.70;;;;;;;;;;2089744;28;20175;-65
2021/04/28 04:19:57;;;;;;;6.40;5.80;;;;;;;;;;2096776;28;20538;-63
2021/04/28 04:21:12;;;;;;;6.63;6.07;;;;;;;;;;2097821;28;20194;-65
2021/04/28 04:22:13;;;;;;;7.77;7.03;;;;;;;;;;2102151;28;20194;-67
2021/04/28 04:23:21;;;;;;;7.27;6.57;;;;;;;;;;2096272;28;20175;-68
2021/04/28 04:24:40;;;;;;;7.73;7.03;;;;;;;;;;2098464;28;20166;-66
2021/04/28 04:25:45;;;;;;;8.17;6.70;;;;;;;;;;2095320;28;20412;-66
2021/04/28 04:27:06;;;;;;;6.47;5.97;;;;;;;;;;2091915;28;20184;-65
2021/04/28 04:28:24;;;;;;;7.07;6.37;;;;;;;;;;2091762;28;20238;-66
2021/04/28 04:29:37;;;;;;;9.33;7.27;;;;;;;;;;2090314;28;20635;-66
2021/04/28 04:31:09;;;;;;;7.20;6.60;;;;;;;;;;2093559;28;20211;-65
2021/04/28 04:32:42;;;;;;;7.43;6.30;;;;;;;;;;2079574;28;20176;-65
2021/04/28 04:34:08;;;;;;;8.27;7.47;;;;;;;;;;2097328;28;20224;-65
2021/04/28 04:35:27;;;;;;;7.27;6.67;;;;;;;;;;2095845;28;20175;-65
2021/04/28 04:36:46;;;;;;;7.03;6.40;;;;;;;;;;2095847;28;20612;-65
2021/04/28 04:38:05;;;;;;;10.30;6.27;;;;;;;;;;2095956;28;20250;-65
2021/04/28 04:39:13;;;;;;;7.37;6.67;;;;;;;;;;2095880;28;20685;-65
2021/04/28 04:40:27;;;;;;;7.43;6.53;;;;;;;;;;2096188;28;20220;-66
2021/04/28 04:41:37;;;;;;;7.03;6.43;;;;;;;;;;2094452;28;20188;-65
2021/04/28 04:43:04;;;;;;;8.33;7.53;;;;;;;;;;2094317;28;20220;-65
2021/04/28 04:44:23;;;;;;;6.47;6.03;;;;;;;;;;2096800;28;20635;-65
2021/04/28 04:45:35;;;;;;;7.97;6.30;;;;;;;;;;2095642;28;20191;-65
2021/04/28 04:46:35;;;;;;;8.20;7.07;;;;;;;;;;2094359;28;20171;-66
2021/04/28 04:47:35;;;;;;;9.13;6.47;;;;;;;;;;2095408;28;20228;-66
2021/04/28 04:48:37;;;;;;;8.63;6.97;;;;;;;;;;2095921;28;20362;-65
2021/04/28 04:49:38;;;;;;;8.13;7.33;;;;;;;;;;2094440;28;20254;-64
2021/04/28 04:50:39;;;;;;;7.77;7.17;;;;;;;;;;2096121;28;20675;-66
2021/04/28 04:51:39;;;;;;;7.40;6.73;;;;;;;;;;2094100;28;20172;-65
2021/04/28 04:52:41;;;;;;;7.63;6.20;;;;;;;;;;2094172;28;20186;-64
2021/04/28 04:53:41;;;;;;;7.43;6.43;;;;;;;;;;2092304;28;20163;-65
2021/04/28 04:54:41;;;;;;;6.43;5.87;;;;;;;;;;2104729;28;20177;-65
2021/04/28 04:55:42;;;;;;;8.30;7.00;;;;;;;;;;2104960;28;20162;-65
2021/04/28 04:56:42;;;;;;;6.80;6.30;;;;;;;;;;2098155;28;20167;-65
2021/04/28 04:57:42;;;;;;;8.17;6.93;;;;;;;;;;2096376;28;20610;-64
2021/04/28 04:58:43;;;;;;;7.13;6.47;;;;;;;;;;2095274;28;20259;-65
2021/04/28 04:59:43;;;;;;;7.53;6.23;;;;;;;;;;2098188;28;20206;-67
2021/04/28 05:00:43;;;;;;;7.37;6.60;;;;;;;;;;2097385;28;20167;-65
2021/04/28 05:01:43;;;;;;;7.30;6.67;;;;;;;;;;2097644;28;20235;-65
2021/04/28 05:02:44;;;;;;;6.87;5.87;;;;;;;;;;2088067;28;20190;-65
2021/04/28 05:03:44;;;;;;;8.00;7.20;;;;;;;;;;2095647;28;20175;-65
2021/04/28 05:04:44;;;;;;;7.03;6.33;;;;;;;;;;2097507;28;20171;-65
2021/04/28 05:05:45;;;;;;;9.20;6.60;;;;;;;;;;2097322;28;20604;-65
2021/04/28 05:06:45;;;;;;;7.10;6.40;;;;;;;;;;2088795;28;20203;-65
2021/04/28 05:07:45;;;;;;;8.33;6.40;;;;;;;;;;2089054;28;20676;-67
2021/04/28 05:08:46;;;;;;;6.67;5.47;;;;;;;;;;2096736;28;20175;-66
2021/04/28 05:09:46;;;;;;;8.90;6.37;;;;;;;;;;2096862;28;20248;-65
2021/04/28 05:10:46;;;;;;;7.10;6.50;;;;;;;;;;2093002;28;20167;-62
2021/04/28 05:11:47;;;;;;;7.30;6.57;;;;;;;;;;2096630;28;20183;-63
2021/04/28 05:12:47;;;;;;;7.57;6.73;;;;;;;;;;2096621;28;20194;-65
2021/04/28 05:13:47;;;;;;;6.67;6.03;;;;;;;;;;2097287;28;20182;-65
2021/04/28 05:14:48;;;;;;;7.20;5.90;;;;;;;;;;2097143;28;20187;-65
2021/04/28 05:15:48;;;;;;;6.97;6.27;;;;;;;;;;2092864;28;20544;-66
2021/04/28 05:16:48;;;;;;;7.70;6.63;;;;;;;;;;2097742;28;20180;-65
2021/04/28 05:17:49;;;;;;;7.10;6.40;;;;;;;;;;2092992;28;20167;-65
2021/04/28 05:18:49;;;;;;;9.07;6.10;;;;;;;;;;2098056;28;20186;-65
2021/04/28 05:19:49;;;;;;;7.50;6.70;;;;;;;;;;2091931;28;20191;-65
2021/04/28 05:20:50;;;;;;;6.90;6.07;;;;;;;;;;2088986;28;20205;-65
2021/04/28 05:21:50;;;;;;;6.33;5.80;;;;;;;;;;2094852;28;20631;-65
2021/04/28 05:22:50;;;;;;;6.73;6.13;;;;;;;;;;2088449;28;20556;-67
2021/04/28 05:24:09;;;;;;;7.83;7.13;;;;;;;;;;2089103;28;20156;-66
2021/04/28 05:25:41;;;;;;;6.07;5.57;;;;;;;;;;2091347;28;20228;-66
2021/04/28 05:26:41;;;;;;;10.70;6.43;;;;;;;;;;2089652;28;20192;-66
2021/04/28 05:27:42;;;;;;;6.90;6.17;;;;;;;;;;2088335;28;20184;-66
2021/04/28 05:28:42;;;;;;;7.33;6.37;;;;;;;;;;2093778;28;20235;-66
2021/04/28 05:29:43;;;;;;;6.33;5.73;;;;;;;;;;2098373;28;20194;-66
2021/04/28 05:30:43;;;;;;;6.83;6.13;;;;;;;;;;2098936;28;20213;-64
2021/04/28 05:31:43;;;;;;;6.70;6.07;;;;;;;;;;2095981;28;20613;-65
2021/04/28 05:32:43;;;;;;;7.33;6.27;;;;;;;;;;2098854;28;20544;-64
2021/04/28 05:33:44;;;;;;;8.27;6.10;;;;;;;;;;2097962;28;20705;-64
2021/04/28 05:34:44;;;;;;;6.63;6.07;;;;;;;;;;2096733;28;20178;-65
2021/04/28 05:35:44;;;;;;;6.30;5.80;;;;;;;;;;2095722;28;20180;-65
2021/04/28 05:36:44;;;;;;;8.43;5.90;;;;;;;;;;2098452;28;20175;-66
2021/04/28 05:37:45;;;;;;;6.80;6.20;;;;;;;;;;2097197;28;20547;-65
2021/04/28 05:38:45;;;;;;;6.40;5.90;;;;;;;;;;2099134;28;20515;-64
2021/04/28 05:39:46;;;;;;;8.17;6.03;;;;;;;;;;2098780;28;20225;-67
2021/04/28 05:40:46;;;;;;;6.90;6.20;;;;;;;;;;2096434;28;20185;-66
2021/04/28 05:41:47;;;;;;;6.50;6.00;;;;;;;;;;2105236;22;20233;-57
2021/04/28 05:42:47;;;;;;;6.77;5.80;;;;;;;;;;2096349;28;20210;-57
2021/04/28 05:43:47;;;;;;;6.40;5.80;;;;;;;;;;2096450;28;20171;-58
2021/04/28 05:44:48;;;;;;;6.50;5.90;;;;;;;;;;2096963;28;20357;-58
2021/04/28 05:45:48;;;;;;;7.20;6.00;;;;;;;;;;2097093;28;20515;-59
2021/04/28 05:46:48;;;;;;;7.43;6.60;;;;;;;;;;2096315;28;20190;-57
2021/04/28 05:47:49;;;;;;;7.73;6.23;;;;;;;;;;2094825;28;20252;-58
2021/04/28 05:48:49;;;;;;;6.17;5.57;;;;;;;;;;2096889;28;20244;-59
2021/04/28 05:49:49;;;;;;;7.30;6.60;;;;;;;;;;2096434;28;20171;-58
2021/04/28 05:50:50;;;;;;;6.70;5.73;;;;;;;;;;2092183;28;20737;-55
2021/04/28 05:51:50;;;;;;;8.23;6.27;;;;;;;;;;2096674;28;20577;-58
2021/04/28 05:52:50;;;;;;;7.50;6.00;;;;;;;;;;2096271;28;20300;-56
2021/04/28 05:53:50;;;;;;;7.10;6.40;;;;;;;;;;2096469;28;20206;-59
2021/04/28 05:54:51;;;;;;;6.93;6.33;;;;;;;;;;2096552;28;20557;-58
2021/04/28 05:55:51;;;;;;;7.53;6.83;;;;;;;;;;2097406;28;20178;-57
2021/04/28 05:56:51;;;;;;;9.20;8.50;;;;;;;;;;2096991;28;20198;-58
2021/04/28 05:57:51;;;;;;;9.57;8.80;;;;;;;;;;2097377;28;20559;-59
2021/04/28 05:58:52;;;;;;;11.50;10.60;;;;;;;;;;2092896;28;20187;-57
2021/04/28 05:59:52;;;;;;;8.23;7.20;;;;;;;;;;2096186;28;20707;-59
2021/04/28 06:00:52;;;;;;;8.47;7.70;;;;;;;;;;2094701;28;20182;-60
2021/04/28 06:01:52;;;;;;;7.13;6.40;;;;;;;;;;2097465;28;20206;-57
2021/04/28 06:02:53;;;;;;;9.63;8.83;;;;;;;;;;2094873;28;20164;-60
2021/04/28 06:03:53;;;;;;;11.90;11.00;;;;;;;;;;2102843;28;20202;-59
2021/04/28 06:04:53;;;;;;;17.17;15.97;;;;;;;;;;2092727;28;20678;-61
2021/04/28 06:05:54;;;;;;;16.27;15.00;;;;;;;;;;2099996;28;20599;-58
2021/04/28 06:06:54;;;;;;;7.93;7.13;;;;;;;;;;2096910;28;20258;-58
2021/04/28 06:07:54;;;;;;;7.30;6.60;;;;;;;;;;2099351;28;20213;-58
2021/04/28 06:08:55;;;;;;;8.23;7.17;;;;;;;;;;2096726;28;20179;-61
2021/04/28 06:09:56;;;;;;;6.93;6.23;;;;;;;;;;2099236;28;20604;-61
2021/04/28 06:10:56;;;;;;;6.17;5.57;;;;;;;;;;2096972;28;20519;-57
2021/04/28 06:11:56;;;;;;;8.60;6.87;;;;;;;;;;2099336;28;20243;-59
2021/04/28 06:12:57;;;;;;;9.60;6.63;;;;;;;;;;2090530;28;20272;-59
2021/04/28 06:13:57;;;;;;;9.07;5.67;;;;;;;;;;2091759;28;20163;-60
2021/04/28 06:14:57;;;;;;;7.97;5.87;;;;;;;;;;2091244;28;20183;-61
2021/04/28 06:15:58;;;;;;;6.13;5.63;;;;;;;;;;2095701;28;20423;-62
2021/04/28 06:17:00;;;;;;;6.87;6.27;;;;;;;;;;2099784;28;20261;-58
2021/04/28 06:18:00;;;;;;;6.10;5.57;;;;;;;;;;2104030;28;20228;-58
2021/04/28 06:19:00;;;;;;;6.37;5.70;;;;;;;;;;2090851;28;20581;-54
2021/04/28 06:20:00;;;;;;;8.53;5.80;;;;;;;;;;2100053;28;20178;-57
2021/04/28 06:21:01;;;;;;;7.43;5.80;;;;;;;;;;2097202;28;20321;-57